Time;durP1;ratioP1;P1;durP2;ratioP2;P2;SDS_P1;SDS_P2;PMS_P1;PMS_P2;Temp;Humidity;BMP_temperature;BMP_pressure;BME280_temperature;BME280_humidity;BME280_pressure;Samples;Min_cycle;Max_cycle;Signal;HPM_P1;HPM_P2
2022/09/19 00:01:30;;;;;;;0.60;0.60;;;;;;;19.10;60.02;96122.91;10293236;28;20336;-63
2022/09/19 00:06:53;;;;;;;0.93;0.70;;;;;;;19.11;59.97;96137.19;10306055;28;20035;-63
2022/09/19 00:12:12;;;;;;;0.68;0.50;;;;;;;19.11;59.99;96134.50;10295742;28;20082;-64
2022/09/19 00:17:32;;;;;;;0.57;0.55;;;;;;;19.10;59.87;96136.41;10326973;28;20051;-63
2022/09/19 00:28:30;;;;;;;0.60;0.60;;;;;;;19.09;59.99;96132.16;10286757;28;20117;-64
2022/09/19 00:33:50;;;;;;;1.05;0.70;;;;;;;19.10;59.78;96144.50;10303512;28;20054;-63
2022/09/19 00:39:13;;;;;;;0.80;0.60;;;;;;;19.09;59.92;96148.34;10295084;28;20063;-63
2022/09/19 00:44:32;;;;;;;2.05;0.70;;;;;;;19.09;59.80;96142.13;10297654;28;20054;-62
2022/09/19 00:49:54;;;;;;;1.30;0.80;;;;;;;19.08;59.93;96138.66;10299184;28;20050;-63
2022/09/19 00:55:14;;;;;;;1.48;0.60;;;;;;;19.07;59.74;96134.41;10292186;28;20046;-63
2022/09/19 01:00:34;;;;;;;0.63;0.60;;;;;;;19.08;59.81;96141.34;10294001;28;20101;-63
2022/09/19 01:05:55;;;;;;;0.60;0.57;;;;;;;19.07;59.82;96123.59;10303483;28;20058;-63
2022/09/19 01:11:56;;;;;;;0.77;0.70;;;;;;;19.07;59.92;96134.41;10316356;28;20055;-63
2022/09/19 01:17:20;;;;;;;0.47;0.47;;;;;;;19.08;59.85;96135.19;10293887;28;20065;-63
2022/09/19 01:22:58;;;;;;;0.50;0.50;;;;;;;19.07;59.79;96139.00;10292145;28;20109;-62
2022/09/19 01:28:21;;;;;;;0.85;0.55;;;;;;;19.06;59.76;96138.19;10284393;28;20113;-63
2022/09/19 01:34:02;;;;;;;0.60;0.60;;;;;;;19.07;59.70;96136.28;10299831;28;20054;-63
2022/09/19 01:39:25;;;;;;;0.70;0.68;;;;;;;19.06;59.81;96127.41;10309059;28;20513;-63
2022/09/19 01:44:52;;;;;;;0.95;0.57;;;;;;;19.05;59.71;96127.75;10284110;28;20047;-63
2022/09/19 01:50:45;;;;;;;0.65;0.60;;;;;;;19.06;59.79;96129.31;10316199;28;20039;-62
2022/09/19 01:56:32;;;;;;;0.93;0.60;;;;;;;19.04;59.76;96132.34;10288775;28;20552;-64
2022/09/19 02:02:10;;;;;;;0.45;0.45;;;;;;;19.05;59.92;96130.44;10313186;28;20453;-63
2022/09/19 02:08:00;;;;;;;0.55;0.52;;;;;;;19.05;59.84;96135.84;10299051;28;20510;-63
2022/09/19 02:13:25;;;;;;;0.65;0.65;;;;;;;19.04;59.89;96128.88;10299451;28;20063;-63
2022/09/19 02:19:00;;;;;;;1.17;0.60;;;;;;;19.03;59.73;96125.38;10286880;28;20121;-63
2022/09/19 02:24:26;;;;;;;0.40;0.40;;;;;;;19.03;59.87;96128.06;10302460;28;20061;-63
2022/09/19 02:29:53;;;;;;;0.60;0.60;;;;;;;19.03;59.73;96122.66;10283359;28;20055;-63
2022/09/19 02:35:49;;;;;;;0.40;0.40;;;;;;;19.02;59.72;96126.50;10298250;28;20059;-63
2022/09/19 02:41:21;;;;;;;1.38;0.60;;;;;;;19.01;59.79;96121.44;10295544;28;20089;-62
2022/09/19 02:46:54;;;;;;;0.50;0.40;;;;;;;19.03;59.73;96119.19;10308993;28;20043;-63
2022/09/19 02:52:19;;;;;;;0.40;0.40;;;;;;;19.01;59.68;96119.53;10313571;28;20049;-63
2022/09/19 02:57:45;;;;;;;0.65;0.50;;;;;;;19.00;59.55;96128.75;10287834;28;20054;-63
2022/09/19 03:08:55;;;;;;;0.80;0.60;;;;;;;18.99;59.65;96127.16;10273508;28;20490;-63
2022/09/19 03:14:16;;;;;;;0.50;0.50;;;;;;;19.00;59.72;96125.28;10296610;28;20063;-63
2022/09/19 03:19:39;;;;;;;0.50;0.40;;;;;;;18.99;59.72;96127.16;10313669;28;20059;-63
2022/09/19 03:25:02;;;;;;;0.40;0.40;;;;;;;18.98;59.71;96128.31;10300408;28;20247;-63
2022/09/19 03:30:23;;;;;;;0.50;0.50;;;;;;;18.98;59.62;96127.53;10296340;28;20105;-63
2022/09/19 03:35:44;;;;;;;0.40;0.40;;;;;;;18.96;59.56;96128.63;10294910;28;20460;-62
2022/09/19 03:41:05;;;;;;;0.50;0.50;;;;;;;18.96;59.64;96136.72;10303733;28;20411;-63
2022/09/19 03:46:25;;;;;;;0.88;0.52;;;;;;;18.96;59.63;96134.03;10310738;28;20038;-63
2022/09/19 03:51:46;;;;;;;0.82;0.40;;;;;;;18.96;59.58;96147.53;10310362;28;20491;-63
2022/09/19 03:57:07;;;;;;;0.50;0.50;;;;;;;18.96;59.63;96144.06;10278626;28;20059;-63
2022/09/19 04:02:27;;;;;;;0.70;0.40;;;;;;;18.97;59.64;96145.63;10303579;28;20498;-64
2022/09/19 04:07:47;;;;;;;0.85;0.57;;;;;;;18.96;59.64;96157.53;10307514;28;20058;-63
2022/09/19 04:13:07;;;;;;;2.03;1.30;;;;;;;18.98;59.62;96165.31;10289435;28;20055;-64
2022/09/19 04:18:27;;;;;;;1.83;0.80;;;;;;;18.99;59.94;96169.56;10289856;28;20051;-63
2022/09/19 04:23:47;;;;;;;1.35;0.80;;;;;;;18.99;60.01;96175.75;10283074;28;20050;-63
2022/09/19 04:29:27;;;;;;;1.13;0.83;;;;;;;18.98;60.06;96168.78;10288875;28;20055;-62
2022/09/19 04:34:47;;;;;;;2.72;0.52;;;;;;;19.00;60.23;96169.25;10290741;28;20054;-63
2022/09/19 04:40:07;;;;;;;1.35;0.60;;;;;;;19.01;60.22;96181.59;10303687;28;20050;-62
2022/09/19 04:45:28;;;;;;;1.65;0.73;;;;;;;19.03;60.33;96186.69;10289875;28;20058;-62
2022/09/19 04:50:53;;;;;;;4.50;0.70;;;;;;;19.04;60.67;96193.66;10285851;28;20509;-62
2022/09/19 04:56:14;;;;;;;2.75;0.80;;;;;;;19.07;60.82;96204.59;10290377;28;20087;-61
2022/09/19 05:01:35;;;;;;;10.00;2.35;;;;;;;19.08;60.69;96202.66;10287774;28;20066;-62
2022/09/19 05:06:56;;;;;;;9.02;1.75;;;;;;;19.09;60.81;96213.13;10284034;28;20040;-62
2022/09/19 05:12:16;;;;;;;6.47;1.92;;;;;;;19.10;60.90;96222.81;10287016;28;20055;-58
2022/09/19 05:17:38;;;;;;;7.18;1.80;;;;;;;19.13;60.96;96232.94;10275680;28;20059;-60
2022/09/19 05:22:59;;;;;;;6.13;1.70;;;;;;;19.16;60.99;96245.75;10257210;28;20058;-63
2022/09/19 05:28:23;;;;;;;6.05;1.95;;;;;;;19.19;61.02;96255.13;10290125;28;20415;-62
2022/09/19 05:33:44;;;;;;;6.63;1.70;;;;;;;19.21;61.03;96254.75;10306961;28;20047;-62
2022/09/19 05:39:09;;;;;;;7.18;1.60;;;;;;;19.26;61.11;96273.47;10286520;28;20054;-62
2022/09/19 05:44:55;;;;;;;4.18;1.50;;;;;;;19.29;61.08;96275.50;10269361;28;20051;-62
2022/09/19 05:50:14;;;;;;;8.70;1.65;;;;;;;19.32;60.96;96291.03;10297440;28;20063;-62
2022/09/19 05:55:36;;;;;;;4.88;1.70;;;;;;;19.34;60.92;96286.84;10294690;28;20057;-62
2022/09/19 06:01:03;;;;;;;9.30;1.70;;;;;;;19.36;60.89;96300.81;10260269;28;20747;-63
2022/09/19 06:06:23;;;;;;;4.97;1.50;;;;;;;19.38;60.76;96308.59;10264863;28;20051;-62
2022/09/19 06:11:43;;;;;;;4.45;1.67;;;;;;;19.41;60.83;96321.44;10273350;28;20070;-62
2022/09/19 06:17:02;;;;;;;3.50;1.60;;;;;;;19.43;60.74;96318.41;10254813;28;20062;-63
2022/09/19 06:22:41;;;;;;;4.82;1.42;;;;;;;19.45;60.67;96326.97;10270719;28;20062;-61
2022/09/19 06:28:10;;;;;;;3.53;1.30;;;;;;;19.47;60.63;96330.13;10282367;28;20043;-62
2022/09/19 06:33:31;;;;;;;4.63;1.40;;;;;;;19.48;60.54;96332.50;10278754;28;20512;-62
2022/09/19 06:39:00;;;;;;;4.28;1.30;;;;;;;19.50;60.52;96332.13;10285509;28;20066;-62
2022/09/19 06:44:31;;;;;;;2.63;1.25;;;;;;;19.51;60.54;96345.31;10274148;28;20043;-62
2022/09/19 06:49:54;;;;;;;5.30;1.60;;;;;;;19.53;60.44;96342.28;10288263;28;20054;-62
2022/09/19 06:55:36;;;;;;;4.47;1.35;;;;;;;19.53;60.41;96351.16;10284700;28;20047;-62
2022/09/19 07:01:01;;;;;;;2.22;1.23;;;;;;;19.54;60.24;96363.56;10287648;28;20051;-63
2022/09/19 07:06:20;;;;;;;3.28;1.20;;;;;;;19.57;60.21;96359.41;10292075;28;20055;-62
2022/09/19 07:12:05;;;;;;;2.58;1.17;;;;;;;19.58;60.20;96379.09;10290245;28;20395;-61
2022/09/19 07:17:28;;;;;;;2.53;1.30;;;;;;;19.59;60.19;96386.09;10305263;28;20058;-62
2022/09/19 07:22:58;;;;;;;3.40;1.33;;;;;;;19.60;60.16;96399.28;10305948;28;20407;-62
2022/09/19 07:28:38;;;;;;;2.55;1.30;;;;;;;19.61;60.14;96400.84;10304729;28;20051;-61
2022/09/19 07:33:57;;;;;;;3.17;1.30;;;;;;;19.61;60.08;96417.06;10293727;28;20440;-62
2022/09/19 07:39:21;;;;;;;2.90;1.30;;;;;;;19.61;60.13;96418.97;10295672;28;20050;-62
2022/09/19 07:45:07;;;;;;;2.88;1.08;;;;;;;19.63;60.08;96424.84;10309349;28;20410;-62
2022/09/19 07:50:44;;;;;;;2.88;1.00;;;;;;;19.64;59.92;96429.09;10285529;28;20110;-62
2022/09/19 07:56:12;;;;;;;2.35;1.20;;;;;;;19.63;60.08;96438.34;10292952;28;20117;-62
2022/09/19 08:01:32;;;;;;;2.22;1.20;;;;;;;19.63;60.10;96436.44;10311662;28;20039;-62
2022/09/19 08:07:07;;;;;;;1.80;1.10;;;;;;;19.65;59.97;96455.00;10295216;28;20062;-63
2022/09/19 08:12:30;;;;;;;2.75;1.20;;;;;;;19.65;60.03;96463.13;10291334;28;20506;-61
2022/09/19 08:18:00;;;;;;;3.33;1.15;;;;;;;19.65;59.96;96460.41;10302877;28;20061;-63
2022/09/19 08:23:21;;;;;;;1.98;1.00;;;;;;;19.65;60.01;96477.41;10304729;28;20054;-62
2022/09/19 08:28:43;;;;;;;2.80;1.30;;;;;;;19.64;60.07;96478.56;10310126;28;20061;-62
2022/09/19 08:34:03;;;;;;;2.78;1.00;;;;;;;19.66;60.09;96478.19;10290209;28;20521;-63
2022/09/19 08:39:23;;;;;;;2.67;1.15;;;;;;;19.66;60.08;96475.50;10291302;28;20122;-62
2022/09/19 08:45:00;;;;;;;2.30;1.10;;;;;;;19.67;60.15;96490.59;10297298;28;20061;-62
2022/09/19 08:50:30;;;;;;;3.40;1.80;;;;;;;19.66;59.14;96494.41;10282130;28;20062;-62
2022/09/19 08:55:54;;;;;;;10.02;2.55;;;;;;;19.66;57.21;96494.41;10325086;28;20101;-62
2022/09/19 09:01:16;;;;;;;7.47;2.70;;;;;;;19.61;56.31;96505.44;10303745;28;20098;-62
2022/09/19 09:07:26;;;;;;;8.98;3.47;;;;;;;19.53;55.60;96513.28;10304024;28;20059;-62
2022/09/19 09:13:17;;;;;;;6.43;3.00;;;;;;;19.51;56.22;96515.53;10313811;28;20055;-61
2022/09/19 09:18:47;;;;;;;7.55;3.20;;;;;;;19.53;56.74;96513.28;10292751;28;20109;-61
2022/09/19 09:24:15;;;;;;;7.35;2.88;;;;;;;19.55;56.46;96521.84;10302978;28;20051;-58
2022/09/19 09:29:58;;;;;;;4.80;2.53;;;;;;;19.53;56.05;96515.97;10309554;28;20065;-61
2022/09/19 09:35:29;;;;;;;4.07;2.13;;;;;;;19.54;56.01;96527.56;10305697;28;20061;-62
2022/09/19 09:46:52;;;;;;;3.47;1.80;;;;;;;19.53;55.28;96523.31;10306428;28;20046;-62
2022/09/19 09:52:50;;;;;;;2.80;1.55;;;;;;;19.52;54.42;96532.53;10320724;28;20057;-62
2022/09/19 09:58:31;;;;;;;3.42;1.60;;;;;;;19.51;54.70;96529.03;10256873;28;20054;-62
2022/09/19 10:04:02;;;;;;;2.10;1.40;;;;;;;19.50;54.78;96537.47;10284293;28;20123;-62
2022/09/19 10:09:33;;;;;;;3.83;1.50;;;;;;;19.49;54.34;96547.50;10307240;28;20093;-62
2022/09/19 10:14:58;;;;;;;1.27;1.10;;;;;;;19.48;54.18;96556.72;10307370;28;20081;-63
2022/09/19 10:20:35;;;;;;;2.17;1.08;;;;;;;19.46;54.45;96556.22;10284556;28;20085;-62
2022/09/19 10:25:59;;;;;;;2.92;1.40;;;;;;;19.46;54.12;96561.63;10278188;28;20402;-62
2022/09/19 10:31:29;;;;;;;2.03;1.20;;;;;;;19.45;53.75;96567.41;10296407;28;20055;-62
2022/09/19 10:37:00;;;;;;;2.63;1.20;;;;;;;19.44;53.89;96574.69;10298607;28;20061;-62
2022/09/19 10:42:40;;;;;;;1.65;1.05;;;;;;;19.43;53.84;96567.72;10288192;28;20471;-62
2022/09/19 10:48:05;;;;;;;2.55;1.50;;;;;;;19.45;53.75;96580.91;10299359;28;20557;-62
2022/09/19 10:53:28;;;;;;;2.00;1.27;;;;;;;19.44;53.62;96574.69;10292670;28;20061;-62
2022/09/19 10:58:59;;;;;;;3.45;1.55;;;;;;;19.43;53.63;96580.44;10281927;28;20410;-62
2022/09/19 11:04:27;;;;;;;4.22;1.60;;;;;;;19.42;53.61;96595.06;10282864;28;20073;-62
2022/09/19 11:09:46;;;;;;;5.38;2.00;;;;;;;19.41;53.33;96596.97;10314584;28;20065;-62
2022/09/19 11:15:15;;;;;;;4.80;1.98;;;;;;;19.40;53.27;96603.47;10278777;28;20102;-59
2022/09/19 11:20:41;;;;;;;5.50;2.13;;;;;;;19.38;53.26;96608.41;10294194;28;20059;-62
2022/09/19 11:26:22;;;;;;;4.57;2.50;;;;;;;19.39;53.27;96620.03;10285695;28;20054;-62
2022/09/19 11:32:03;;;;;;;4.55;2.28;;;;;;;19.38;53.19;96611.13;10308074;28;20549;-62
2022/09/19 11:37:36;;;;;;;5.75;2.30;;;;;;;19.36;53.70;96613.34;10301053;28;20494;-62
2022/09/19 11:42:59;;;;;;;4.57;2.03;;;;;;;19.36;53.44;96616.06;10297319;28;20495;-62
2022/09/19 11:48:45;;;;;;;5.25;1.90;;;;;;;19.35;53.32;96619.91;10305998;28;20038;-61
2022/09/19 11:54:33;;;;;;;4.75;2.00;;;;;;;19.36;53.31;96621.47;10293323;28;20054;-63
2022/09/19 12:00:20;;;;;;;5.37;2.17;;;;;;;19.35;53.20;96620.69;10313404;28;20506;-62
2022/09/19 12:06:08;;;;;;;6.18;2.10;;;;;;;19.35;53.64;96617.19;10278574;28;20525;-61
2022/09/19 12:11:39;;;;;;;4.40;1.90;;;;;;;19.33;53.66;96605.94;10292203;28;20112;-63
2022/09/19 12:17:05;;;;;;;3.95;2.33;;;;;;;19.35;54.21;96603.69;10295654;28;20058;-63
2022/09/19 12:22:29;;;;;;;5.65;3.15;;;;;;;19.34;54.34;96608.28;10294687;28;20054;-63
2022/09/19 12:27:54;;;;;;;7.78;2.85;;;;;;;19.35;54.70;96592.88;10317487;28;20058;-62
2022/09/19 12:34:10;;;;;;;3.75;2.03;;;;;;;19.34;55.21;96602.88;10278041;28;20047;-63
2022/09/19 12:39:57;;;;;;;3.95;2.22;;;;;;;19.35;55.29;96606.38;10197208;29;20055;-62
2022/09/19 12:45:23;;;;;;;3.53;2.10;;;;;;;19.34;55.42;96600.16;10283515;28;20051;-63
2022/09/19 12:50:49;;;;;;;4.82;2.10;;;;;;;19.34;55.71;96599.38;10294433;28;20120;-63
2022/09/19 12:56:23;;;;;;;6.43;2.28;;;;;;;19.35;55.83;96592.88;10291325;28;20058;-63
2022/09/19 13:01:59;;;;;;;4.82;2.15;;;;;;;19.33;56.09;96595.13;10296149;28;20105;-62
2022/09/19 13:07:30;;;;;;;3.70;2.13;;;;;;;19.33;56.15;96600.53;10292445;28;20062;-63
2022/09/19 13:12:57;;;;;;;3.50;1.92;;;;;;;19.34;56.31;96596.69;10313265;28;20266;-63
2022/09/19 13:24:08;;;;;;;4.82;2.08;;;;;;;19.32;56.64;96607.03;10259798;28;20046;-62
2022/09/19 13:29:27;;;;;;;4.22;2.10;;;;;;;19.32;56.60;96607.81;10291576;28;20054;-63
2022/09/19 13:35:00;;;;;;;3.15;1.67;;;;;;;19.33;56.84;96614.03;10291762;28;20102;-63
2022/09/19 13:40:39;;;;;;;3.60;1.85;;;;;;;19.34;56.98;96618.28;10283392;28;20054;-63
2022/09/19 13:46:05;;;;;;;3.10;1.60;;;;;;;19.34;57.11;96619.09;10307759;28;20051;-62
2022/09/19 13:51:42;;;;;;;3.47;1.90;;;;;;;19.33;57.18;96660.72;10298633;28;20069;-63
2022/09/19 13:57:04;;;;;;;2.40;1.55;;;;;;;19.35;57.16;96668.50;10308845;28;20051;-63
2022/09/19 14:02:28;;;;;;;2.72;1.60;;;;;;;19.34;57.24;96656.91;10308963;28;20053;-61
2022/09/19 14:07:56;;;;;;;3.00;1.77;;;;;;;19.35;57.31;96658.50;10297178;28;20058;-63
2022/09/19 14:13:27;;;;;;;2.75;1.70;;;;;;;19.37;57.33;96660.88;10297250;28;20059;-63
2022/09/19 14:18:49;;;;;;;2.75;1.58;;;;;;;19.38;57.39;96662.44;10313086;28;20074;-63
2022/09/19 14:24:28;;;;;;;3.10;1.70;;;;;;;19.39;57.34;96658.63;10296307;28;20062;-62
2022/09/19 14:30:01;;;;;;;3.40;1.60;;;;;;;19.42;57.40;96657.97;10296624;28;20446;-62
2022/09/19 14:35:30;;;;;;;3.67;1.83;;;;;;;19.43;57.44;96651.47;10309747;28;20046;-63
2022/09/19 14:41:15;;;;;;;2.50;1.70;;;;;;;19.45;57.52;96643.03;10307753;28;20059;-63
2022/09/19 14:46:52;;;;;;;2.28;1.33;;;;;;;19.47;57.53;96636.19;10289683;28;20118;-63
2022/09/19 14:52:14;;;;;;;2.97;1.70;;;;;;;19.49;57.49;96642.03;10304656;28;20112;-63
2022/09/19 14:57:34;;;;;;;2.47;1.40;;;;;;;19.51;57.60;96656.03;10288979;28;20050;-63
2022/09/19 15:02:56;;;;;;;3.03;1.42;;;;;;;19.53;57.63;96656.47;10305771;28;20049;-62
2022/09/19 15:08:30;;;;;;;2.80;1.58;;;;;;;19.57;57.63;96662.03;10304143;28;20058;-61
2022/09/19 15:13:50;;;;;;;2.30;1.67;;;;;;;19.60;57.67;96657.88;10294988;28;20085;-62
2022/09/19 15:19:10;;;;;;;3.78;1.70;;;;;;;19.63;57.61;96668.81;10305380;28;20113;-62
2022/09/19 15:24:30;;;;;;;3.10;1.65;;;;;;;19.66;57.73;96668.19;10294408;28;20077;-63
2022/09/19 15:29:49;;;;;;;2.35;1.40;;;;;;;19.68;57.62;96671.34;10305747;28;20054;-61
2022/09/19 15:35:13;;;;;;;2.55;1.40;;;;;;;19.71;57.73;96686.09;10320502;28;20047;-62
2022/09/19 15:40:34;;;;;;;1.52;1.35;;;;;;;19.73;57.72;96681.19;10305104;28;20050;-63
2022/09/19 15:45:58;;;;;;;1.85;1.23;;;;;;;19.74;57.73;96680.88;10294233;28;20487;-63
2022/09/19 15:51:36;;;;;;;2.28;1.48;;;;;;;19.78;57.78;96689.13;10281266;28;20081;-62
2022/09/19 15:57:01;;;;;;;3.00;1.40;;;;;;;19.81;57.96;96691.16;10289572;28;20068;-61
2022/09/19 16:02:22;;;;;;;2.22;1.30;;;;;;;19.84;57.97;96689.72;10282844;28;20055;-62
2022/09/19 16:13:40;;;;;;;2.88;1.45;;;;;;;19.88;58.47;96704.94;10283232;28;20055;-63
2022/09/19 16:19:00;;;;;;;2.50;1.30;;;;;;;19.93;58.60;96703.97;10314543;28;20055;-64
2022/09/19 16:24:22;;;;;;;2.03;1.30;;;;;;;19.95;59.13;96712.53;10301641;28;20062;-61
2022/09/19 16:29:47;;;;;;;3.17;1.30;;;;;;;19.98;59.71;96709.19;10295223;28;20062;-59
2022/09/19 16:35:16;;;;;;;6.20;1.30;;;;;;;20.01;59.63;96710.44;10305490;28;20050;-63
2022/09/19 16:40:35;;;;;;;3.05;1.27;;;;;;;20.02;59.62;96720.13;10317563;28;20058;-66
2022/09/19 16:45:55;;;;;;;3.63;1.38;;;;;;;20.04;59.57;96726.00;10280626;28;20055;-63
2022/09/19 16:51:15;;;;;;;2.33;1.20;;;;;;;20.05;59.61;96732.97;10292306;28;20051;-60
2022/09/19 16:56:34;;;;;;;2.05;1.23;;;;;;;20.07;59.81;96744.25;10304767;28;20097;-61
2022/09/19 17:01:56;;;;;;;2.42;1.40;;;;;;;20.09;59.90;96750.13;10312076;28;20054;-61
2022/09/19 17:07:19;;;;;;;3.25;1.30;;;;;;;20.10;59.95;96752.50;10286163;28;20055;-61
2022/09/19 17:12:38;;;;;;;2.95;1.50;;;;;;;20.11;60.07;96758.72;10290099;28;20062;-60
2022/09/19 17:17:58;;;;;;;4.30;1.10;;;;;;;20.12;60.11;96760.31;10311760;28;20055;-60
2022/09/19 17:23:18;;;;;;;3.38;1.40;;;;;;;20.12;60.16;96755.69;10298694;28;20054;-61
2022/09/19 17:28:40;;;;;;;2.55;1.20;;;;;;;20.12;57.77;96769.19;10320640;28;20499;-60
2022/09/19 17:34:04;;;;;;;2.20;1.15;;;;;;;20.13;58.70;96770.00;10298236;28;20061;-62
2022/09/19 17:39:24;;;;;;;3.88;1.20;;;;;;;20.14;58.76;96769.66;10311973;28;20039;-61
2022/09/19 17:44:44;;;;;;;2.05;1.13;;;;;;;20.14;58.74;96779.69;10300883;28;20439;-61
2022/09/19 17:50:05;;;;;;;1.70;1.17;;;;;;;20.15;58.80;96786.72;10301298;28;20521;-61
2022/09/19 17:55:25;;;;;;;2.05;1.20;;;;;;;20.15;58.80;96792.13;10309032;28;20047;-60
2022/09/19 18:00:44;;;;;;;2.67;1.10;;;;;;;20.15;58.81;96800.22;10310368;28;20054;-60
2022/09/19 18:06:03;;;;;;;1.80;1.15;;;;;;;20.15;58.94;96792.91;10305740;28;20102;-60
2022/09/19 18:11:23;;;;;;;1.63;0.93;;;;;;;20.15;58.94;96801.00;10302006;28;20054;-61
2022/09/19 18:16:43;;;;;;;2.10;1.00;;;;;;;20.16;59.05;96812.63;10324421;28;20046;-61
2022/09/19 18:22:05;;;;;;;1.48;1.02;;;;;;;20.17;59.06;96806.09;10311235;28;20394;-60
2022/09/19 18:27:27;;;;;;;1.30;1.05;;;;;;;20.17;59.13;96810.69;10288041;28;20055;-60
2022/09/19 18:32:47;;;;;;;2.10;1.10;;;;;;;20.17;59.31;96808.00;10325548;28;20042;-60
2022/09/19 18:38:08;;;;;;;1.75;1.15;;;;;;;20.18;59.20;96823.91;10323678;28;20058;-59
2022/09/19 18:43:28;;;;;;;1.08;0.95;;;;;;;20.20;59.31;96829.00;10323033;28;20058;-57
2022/09/19 18:48:48;;;;;;;1.20;0.90;;;;;;;20.19;59.42;96833.63;10309266;28;20046;-62
2022/09/19 18:54:08;;;;;;;1.73;0.90;;;;;;;20.19;59.40;96819.28;10302798;28;20039;-61
2022/09/19 18:59:28;;;;;;;1.95;0.90;;;;;;;20.19;59.39;96825.50;10314871;28;20109;-61
2022/09/19 19:04:48;;;;;;;3.47;1.00;;;;;;;20.21;59.45;96827.84;10324334;28;20334;-62
2022/09/19 19:10:08;;;;;;;2.58;1.02;;;;;;;20.20;59.67;96827.06;10277962;28;20138;-61
2022/09/19 19:15:29;;;;;;;1.35;1.00;;;;;;;20.21;59.62;96828.66;10292702;28;20415;-60
2022/09/19 19:20:49;;;;;;;0.80;0.80;;;;;;;20.21;59.63;96828.66;10286808;28;20058;-63
2022/09/19 19:26:09;;;;;;;1.88;1.05;;;;;;;20.23;59.75;96825.63;10284963;28;20106;-61
2022/09/19 19:31:30;;;;;;;1.30;0.80;;;;;;;20.22;59.81;96832.94;10291373;28;20061;-63
2022/09/19 19:36:50;;;;;;;2.55;1.00;;;;;;;20.22;59.76;96832.16;10293215;28;20564;-61
2022/09/19 19:42:09;;;;;;;1.42;0.98;;;;;;;20.22;59.81;96843.75;10286331;28;20058;-62
2022/09/19 19:47:29;;;;;;;1.90;0.95;;;;;;;20.23;59.87;96839.13;10283543;28;20051;-60
2022/09/19 19:52:48;;;;;;;1.20;0.75;;;;;;;20.23;59.88;96841.84;10306375;28;20642;-61
2022/09/19 19:58:07;;;;;;;2.25;1.10;;;;;;;20.22;59.54;96849.16;10275027;28;20055;-59
2022/09/19 20:03:37;;;;;;;2.72;1.45;;;;;;;20.21;60.09;96858.44;10287960;28;20055;-61
2022/09/19 20:08:57;;;;;;;1.85;1.00;;;;;;;20.21;60.14;96869.25;10274395;28;20081;-61
2022/09/19 20:14:17;;;;;;;1.50;0.80;;;;;;;20.22;60.11;96875.44;10292506;28;20062;-62
2022/09/19 20:19:37;;;;;;;1.33;0.70;;;;;;;20.21;60.12;96868.44;10279584;28;20065;-60
2022/09/19 20:24:56;;;;;;;2.22;0.98;;;;;;;20.21;60.20;96866.53;10265862;28;20059;-61
2022/09/19 20:30:16;;;;;;;0.93;0.80;;;;;;;20.21;60.24;96861.13;10292501;28;20461;-61
2022/09/19 20:35:35;;;;;;;1.20;0.80;;;;;;;20.21;60.17;96865.72;10289620;28;20050;-61
2022/09/19 20:40:59;;;;;;;0.60;0.60;;;;;;;20.20;60.18;96862.22;10292127;28;20491;-62
2022/09/19 20:46:19;;;;;;;1.38;0.80;;;;;;;20.20;60.07;96866.84;10279412;28;20051;-61
2022/09/19 20:51:41;;;;;;;1.13;0.80;;;;;;;20.19;60.15;96863.38;10275660;28;20078;-63
2022/09/19 20:57:01;;;;;;;1.42;0.80;;;;;;;20.21;60.18;96863.03;10281260;28;20055;-63
2022/09/19 21:02:20;;;;;;;2.10;0.70;;;;;;;20.20;60.17;96858.75;10288514;28;20410;-63
2022/09/19 21:07:39;;;;;;;0.80;0.80;;;;;;;20.17;60.33;96864.78;10277081;28;20043;-63
2022/09/19 21:12:58;;;;;;;0.95;0.70;;;;;;;20.17;60.29;96871.03;10298184;28;20055;-62
2022/09/19 21:18:19;;;;;;;0.88;0.60;;;;;;;20.18;60.04;96875.28;10291525;28;20467;-62
2022/09/19 21:23:40;;;;;;;1.00;0.75;;;;;;;20.17;59.95;96868.31;10284721;28;20050;-62
2022/09/19 21:29:04;;;;;;;1.48;0.82;;;;;;;20.15;59.88;96870.56;10288584;28;20083;-62
2022/09/19 21:34:24;;;;;;;1.98;0.65;;;;;;;20.14;59.81;96861.63;10287781;28;20057;-63
2022/09/19 21:39:43;;;;;;;1.70;0.80;;;;;;;20.14;59.66;96866.25;10298588;28;20042;-60
2022/09/19 21:45:03;;;;;;;0.75;0.70;;;;;;;20.13;59.76;96864.66;10277225;28;20051;-62
2022/09/19 21:50:23;;;;;;;1.00;0.63;;;;;;;20.13;59.91;96861.94;10286321;28;20050;-63
2022/09/19 21:55:50;;;;;;;1.67;0.75;;;;;;;20.12;59.78;96863.06;10276006;28;20058;-63
2022/09/19 22:01:17;;;;;;;1.05;0.70;;;;;;;20.11;59.70;96859.59;10259281;28;20063;-63
2022/09/19 22:06:37;;;;;;;0.80;0.70;;;;;;;20.10;59.65;96855.28;10268307;28;20058;-62
2022/09/19 22:11:56;;;;;;;1.00;0.70;;;;;;;20.10;59.71;96859.91;10306767;28;20399;-62
2022/09/19 22:17:16;;;;;;;1.05;0.80;;;;;;;20.09;59.60;96863.72;10325544;28;20402;-62
2022/09/19 22:22:35;;;;;;;0.85;0.70;;;;;;;20.08;59.53;96862.94;10304250;28;20406;-63
2022/09/19 22:27:56;;;;;;;0.98;0.70;;;;;;;20.08;59.57;96862.94;10307861;28;20050;-62
2022/09/19 22:33:15;;;;;;;1.02;0.80;;;;;;;20.08;59.61;96862.16;10287019;28;20055;-61
2022/09/19 22:38:35;;;;;;;1.10;0.70;;;;;;;20.08;59.56;96872.97;10310148;28;20042;-63
2022/09/19 22:43:55;;;;;;;0.90;0.70;;;;;;;20.07;59.59;96863.25;10296950;28;20053;-62
2022/09/19 22:49:15;;;;;;;0.68;0.60;;;;;;;20.06;59.56;96865.16;10296546;28;20051;-62
2022/09/19 22:54:34;;;;;;;1.95;0.70;;;;;;;20.05;59.43;96873.59;10327960;28;20046;-62
2022/09/19 22:59:54;;;;;;;1.30;0.82;;;;;;;20.05;59.55;96868.19;10295570;28;20051;-62
2022/09/19 23:05:13;;;;;;;1.05;0.80;;;;;;;20.04;59.49;96870.13;10308605;28;20054;-63
2022/09/19 23:10:33;;;;;;;0.75;0.70;;;;;;;20.04;59.49;96872.03;10295688;28;20062;-63
2022/09/19 23:15:52;;;;;;;0.70;0.60;;;;;;;20.03;59.53;96865.03;10300823;28;20053;-63
2022/09/19 23:21:11;;;;;;;1.90;0.70;;;;;;;20.02;59.45;96866.16;10297377;28;20065;-62
2022/09/19 23:26:31;;;;;;;1.92;0.63;;;;;;;20.03;59.39;96875.84;10293548;28;20046;-62
2022/09/19 23:31:51;;;;;;;0.80;0.60;;;;;;;20.01;59.50;96868.03;10299959;28;20078;-62
2022/09/19 23:37:10;;;;;;;0.68;0.68;;;;;;;20.00;59.38;96877.28;10294925;28;20062;-62
2022/09/19 23:42:30;;;;;;;0.63;0.63;;;;;;;20.00;59.39;96876.50;10294767;28;20054;-63
2022/09/19 23:47:50;;;;;;;0.63;0.50;;;;;;;19.99;59.34;96875.69;10294292;28;20058;-61
2022/09/19 23:53:09;;;;;;;1.83;0.73;;;;;;;19.99;59.40;96874.91;10307053;28;20090;-62
2022/09/19 23:58:29;;;;;;;1.90;0.63;;;;;;;19.97;59.34;96875.22;10296709;28;20062;-59
